Erdenheim, Pennsylvania
Current Conditions -  °F | °C
As of 9:35 PM on Saturday 25 Oct 2014 (Local Time) from KLOM Reporting Station
Scattered Clouds Scattered Clouds  
Wind Chill: 63°   Ceiling: Unl
Heat Index: 63°   Visibility: 10mi
Dew Point: 45°   Wind: 7mph
Humidity: 52%   Direction: 230°SW
Pressure: 29.66"   Gusts: NA
Location:  40.1012°N, 75.1722°W
Report Text: KLOM 260135Z AUTO 23006KT 10SM SCT060 17/07 A2966 RMK AO1
Loading
Personal Weather Stations






























Interactive Weather Map
Tropical Storm Tracking
New forecast layout! Learn more

10-Day Weather Forecast

Advertisements
Track Severe Weather on mobile